createdAt,value
2018-07-24T00:00:01.298Z,797.66
2018-07-24T00:00:05.619Z,797.62
2018-07-24T00:00:09.614Z,797.64
2018-07-24T00:00:13.926Z,797.62
2018-07-24T00:00:18.149Z,797.61
2018-07-24T00:00:22.465Z,797.67
2018-07-24T00:00:26.777Z,797.62
2018-07-24T00:00:30.875Z,797.62
2018-07-24T00:00:34.974Z,797.65
2018-07-24T00:00:39.286Z,797.68
2018-07-24T00:00:43.597Z,797.69
2018-07-24T00:00:47.912Z,797.66
2018-07-24T00:00:52.125Z,797.7
2018-07-24T00:00:56.330Z,797.66
2018-07-24T00:01:00.545Z,797.68
2018-07-24T00:01:04.644Z,797.7
2018-07-24T00:01:08.952Z,797.69
2018-07-24T00:01:13.161Z,797.66
2018-07-24T00:01:17.257Z,797.69
2018-07-24T00:01:21.146Z,797.68
2018-07-24T00:01:25.458Z,797.67
2018-07-24T00:01:29.777Z,797.68
2018-07-24T00:01:34.089Z,797.69
2018-07-24T00:01:38.404Z,797.68
2018-07-24T00:01:42.731Z,797.66
2018-07-24T00:01:46.831Z,797.65
2018-07-24T00:01:50.932Z,797.63
2018-07-24T00:01:54.924Z,797.66
2018-07-24T00:01:59.128Z,797.68
2018-07-24T00:02:03.441Z,797.66
2018-07-24T00:02:07.651Z,797.66
2018-07-24T00:02:11.865Z,797.66
2018-07-24T00:02:16.070Z,797.64
2018-07-24T00:02:20.168Z,797.66
2018-07-24T00:02:24.265Z,797.65
2018-07-24T00:02:28.476Z,797.65
2018-07-24T00:02:32.577Z,797.66
2018-07-24T00:02:36.684Z,797.66
2018-07-24T00:02:40.888Z,797.66
2018-07-24T00:02:45.099Z,797.67
2018-07-24T00:02:49.306Z,797.67
2018-07-24T00:02:53.505Z,797.64
2018-07-24T00:02:57.713Z,797.63
2018-07-24T00:03:01.924Z,797.68
2018-07-24T00:03:06.136Z,797.66
2018-07-24T00:03:10.129Z,797.6
2018-07-24T00:03:14.223Z,797.62
2018-07-24T00:03:18.217Z,797.64
2018-07-24T00:03:22.422Z,797.66
2018-07-24T00:03:26.646Z,797.69
2018-07-24T00:03:30.849Z,797.66
2018-07-24T00:03:35.155Z,797.66
2018-07-24T00:03:39.364Z,797.66
2018-07-24T00:03:43.675Z,797.62
2018-07-24T00:03:47.990Z,797.66
2018-07-24T00:03:52.193Z,797.61
2018-07-24T00:03:56.393Z,797.63
2018-07-24T00:04:00.490Z,797.63
2018-07-24T00:04:04.721Z,797.62
2018-07-24T00:04:08.935Z,797.63
2018-07-24T00:04:13.247Z,797.62
2018-07-24T00:04:17.460Z,797.64
2018-07-24T00:04:21.670Z,797.61
2018-07-24T00:04:25.766Z,797.66
2018-07-24T00:04:29.864Z,797.63
2018-07-24T00:04:33.851Z,797.63
2018-07-24T00:04:37.857Z,797.61
2018-07-24T00:04:42.058Z,797.62
2018-07-24T00:04:46.271Z,797.61
2018-07-24T00:04:50.579Z,797.58
2018-07-24T00:04:54.884Z,797.55
2018-07-24T00:04:58.983Z,797.57
2018-07-24T00:05:02.973Z,797.57
2018-07-24T00:05:07.187Z,797.61
2018-07-24T00:05:11.285Z,797.59
2018-07-24T00:05:15.393Z,797.59
2018-07-24T00:05:19.491Z,797.61
2018-07-24T00:05:23.803Z,797.61
2018-07-24T00:05:28.010Z,797.61
2018-07-24T00:05:32.221Z,797.61
2018-07-24T00:05:36.318Z,797.62
2018-07-24T00:05:40.633Z,797.59
2018-07-24T00:05:44.835Z,797.61
2018-07-24T00:05:49.153Z,797.61
2018-07-24T00:05:53.458Z,797.59
2018-07-24T00:05:57.672Z,797.58
2018-07-24T00:06:02.032Z,797.57
2018-07-24T00:06:06.129Z,797.6
2018-07-24T00:06:10.332Z,797.59
2018-07-24T00:06:14.545Z,797.6
2018-07-24T00:06:18.750Z,797.58
2018-07-24T00:06:23.054Z,797.61
2018-07-24T00:06:27.362Z,797.57
2018-07-24T00:06:31.668Z,797.56
2018-07-24T00:06:35.874Z,797.56
2018-07-24T00:06:40.081Z,797.54
2018-07-24T00:06:44.395Z,797.56
2018-07-24T00:06:48.507Z,797.55
2018-07-24T00:06:52.715Z,797.56
2018-07-24T00:06:56.912Z,797.54
2018-07-24T00:07:01.124Z,797.55
2018-07-24T00:07:05.123Z,797.49
2018-07-24T00:07:09.238Z,797.52
2018-07-24T00:07:13.437Z,797.52
2018-07-24T00:07:17.539Z,797.52
2018-07-24T00:07:21.742Z,797.5
2018-07-24T00:07:25.839Z,797.49
2018-07-24T00:07:30.040Z,797.49
2018-07-24T00:07:34.352Z,797.49
2018-07-24T00:07:38.662Z,797.51
2018-07-24T00:07:42.977Z,797.51
2018-07-24T00:07:47.179Z,797.49
2018-07-24T00:07:51.495Z,797.44
2018-07-24T00:07:55.594Z,797.5
2018-07-24T00:07:59.802Z,797.47
2018-07-24T00:08:04.012Z,797.51
2018-07-24T00:08:08.111Z,797.52
2018-07-24T00:08:12.320Z,797.47
2018-07-24T00:08:16.573Z,797.47
2018-07-24T00:08:20.886Z,797.45
2018-07-24T00:08:25.093Z,797.44
2018-07-24T00:08:29.407Z,797.47
2018-07-24T00:08:33.726Z,797.42
2018-07-24T00:08:37.936Z,797.48
2018-07-24T00:08:42.252Z,797.48
2018-07-24T00:08:46.456Z,797.45
2018-07-24T00:08:50.445Z,797.45
2018-07-24T00:08:54.656Z,797.49
2018-07-24T00:08:58.875Z,797.46
2018-07-24T00:09:02.979Z,797.42
2018-07-24T00:09:07.083Z,797.4
2018-07-24T00:09:11.290Z,797.47
2018-07-24T00:09:15.512Z,797.44
2018-07-24T00:09:19.549Z,797.44
2018-07-24T00:09:23.864Z,797.44
2018-07-24T00:09:28.073Z,797.42
2018-07-24T00:09:32.393Z,797.42
2018-07-24T00:09:36.593Z,797.42
2018-07-24T00:09:40.802Z,797.45
2018-07-24T00:09:45.004Z,797.42
2018-07-24T00:09:49.217Z,797.35
2018-07-24T00:09:53.529Z,797.41
2018-07-24T00:09:57.629Z,797.39
2018-07-24T00:10:01.835Z,797.39
2018-07-24T00:10:05.937Z,797.39
2018-07-24T00:10:10.380Z,797.4
2018-07-24T00:10:14.695Z,797.38
2018-07-24T00:10:19.013Z,797.42
2018-07-24T00:10:23.328Z,797.34
2018-07-24T00:10:27.428Z,797.39
2018-07-24T00:10:31.740Z,797.38
2018-07-24T00:10:35.942Z,797.33
2018-07-24T00:10:40.246Z,797.34
2018-07-24T00:10:44.450Z,797.31
2018-07-24T00:10:48.584Z,797.38
2018-07-24T00:10:53.193Z,797.38
2018-07-24T00:10:57.920Z,797.36
2018-07-24T00:11:02.649Z,797.32
2018-07-24T00:11:06.955Z,797.37
2018-07-24T00:11:11.062Z,797.35
2018-07-24T00:11:15.379Z,797.34
2018-07-24T00:11:19.590Z,797.34
2018-07-24T00:11:23.693Z,797.33
2018-07-24T00:11:28.010Z,797.35
2018-07-24T00:11:32.370Z,797.34
2018-07-24T00:11:36.583Z,797.34
2018-07-24T00:11:40.696Z,797.26
2018-07-24T00:11:45.016Z,797.31
2018-07-24T00:11:49.326Z,797.31
2018-07-24T00:11:53.534Z,797.3
2018-07-24T00:11:57.844Z,797.29
2018-07-24T00:12:02.159Z,797.31
2018-07-24T00:12:06.262Z,797.31
2018-07-24T00:12:10.468Z,797.3
2018-07-24T00:12:14.566Z,797.29
2018-07-24T00:12:18.810Z,797.28
2018-07-24T00:12:23.024Z,797.26
2018-07-24T00:12:27.119Z,797.26
2018-07-24T00:12:31.321Z,797.3
2018-07-24T00:12:35.525Z,797.25
2018-07-24T00:12:39.832Z,797.2
2018-07-24T00:12:44.039Z,797.27
2018-07-24T00:12:48.242Z,797.23
2018-07-24T00:12:52.450Z,797.21
2018-07-24T00:12:56.759Z,797.17
2018-07-24T00:13:00.859Z,797.22
2018-07-24T00:13:04.958Z,797.23
2018-07-24T00:13:09.294Z,797.21
2018-07-24T00:13:13.496Z,797.22
2018-07-24T00:13:17.700Z,797.22
2018-07-24T00:13:22.011Z,797.22
2018-07-24T00:13:26.216Z,797.2
2018-07-24T00:13:30.526Z,797.17
2018-07-24T00:13:34.733Z,797.2
2018-07-24T00:13:39.054Z,797.17
2018-07-24T00:13:43.368Z,797.23
2018-07-24T00:13:47.724Z,797.2
2018-07-24T00:13:51.929Z,797.18
2018-07-24T00:13:56.241Z,797.18
2018-07-24T00:14:00.559Z,797.15
2018-07-24T00:14:04.664Z,797.18
2018-07-24T00:14:08.879Z,797.18
2018-07-24T00:14:12.983Z,797.17
2018-07-24T00:14:17.186Z,797.16
2018-07-24T00:14:21.067Z,797.17
2018-07-24T00:14:25.378Z,797.15
2018-07-24T00:14:29.364Z,797.17
2018-07-24T00:14:33.580Z,797.19
2018-07-24T00:14:37.786Z,797.17
2018-07-24T00:14:42.094Z,797.15
2018-07-24T00:14:46.305Z,797.14
2018-07-24T00:14:50.620Z,797.11
2018-07-24T00:14:54.716Z,797.13
2018-07-24T00:14:58.923Z,797.13
2018-07-24T00:15:03.239Z,797.16
2018-07-24T00:15:07.550Z,797.12
2018-07-24T00:15:11.753Z,797.13
2018-07-24T00:15:16.069Z,797.11
2018-07-24T00:15:20.060Z,797.08
2018-07-24T00:15:24.370Z,797.12
2018-07-24T00:15:28.574Z,797.13
2018-07-24T00:15:32.562Z,797.08
2018-07-24T00:15:36.773Z,797.1
2018-07-24T00:15:41.081Z,797.12
2018-07-24T00:15:45.397Z,797.09
2018-07-24T00:15:49.714Z,797.1
2018-07-24T00:15:53.929Z,797.11
2018-07-24T00:15:58.251Z,797.08
2018-07-24T00:16:02.356Z,797.11
2018-07-24T00:16:06.345Z,797.11
2018-07-24T00:16:10.441Z,797.06
2018-07-24T00:16:14.645Z,797.13
2018-07-24T00:16:18.854Z,797.08
2018-07-24T00:16:23.061Z,797.08
2018-07-24T00:16:27.160Z,797.07
2018-07-24T00:16:31.261Z,797.11
2018-07-24T00:16:35.363Z,797.07
2018-07-24T00:16:39.500Z,797.07
2018-07-24T00:16:43.708Z,797.07
2018-07-24T00:16:48.022Z,797.05
2018-07-24T00:16:52.342Z,797.04
2018-07-24T00:16:56.453Z,797.08
2018-07-24T00:17:00.660Z,797.04
2018-07-24T00:17:05.025Z,797.09
2018-07-24T00:17:09.127Z,797.07
2018-07-24T00:17:13.332Z,797.02
2018-07-24T00:17:17.319Z,797.05
2018-07-24T00:17:21.420Z,797.06
2018-07-24T00:17:25.623Z,797.04
2018-07-24T00:17:29.851Z,797.06
2018-07-24T00:17:34.055Z,797.04
2018-07-24T00:17:38.379Z,797.04
2018-07-24T00:17:42.691Z,797.09
2018-07-24T00:17:46.891Z,797.1
2018-07-24T00:17:51.209Z,797.06
2018-07-24T00:17:55.412Z,797.03
2018-07-24T00:17:59.511Z,797.04
2018-07-24T00:18:03.717Z,797.07
2018-07-24T00:18:07.816Z,797.05
2018-07-24T00:18:12.023Z,797.02
2018-07-24T00:18:16.226Z,797.03
2018-07-24T00:18:20.223Z,797.05
2018-07-24T00:18:24.535Z,797
2018-07-24T00:18:28.850Z,797.04
2018-07-24T00:18:33.054Z,797.06
2018-07-24T00:18:37.371Z,797.02
2018-07-24T00:18:41.696Z,797.05
2018-07-24T00:18:45.912Z,797.02
2018-07-24T00:18:50.114Z,797.04
2018-07-24T00:18:54.208Z,797.05
2018-07-24T00:18:58.515Z,797.03
2018-07-24T00:19:02.611Z,797.04
2018-07-24T00:19:06.713Z,797.02
2018-07-24T00:19:10.827Z,797.01
2018-07-24T00:19:15.032Z,797.03
2018-07-24T00:19:19.352Z,797.04
2018-07-24T00:19:23.678Z,796.99
2018-07-24T00:19:27.890Z,797.01
2018-07-24T00:19:32.204Z,796.99
2018-07-24T00:19:36.410Z,796.94
2018-07-24T00:19:40.619Z,796.96
2018-07-24T00:19:44.929Z,796.99
2018-07-24T00:19:49.242Z,796.99
2018-07-24T00:19:53.555Z,796.99
2018-07-24T00:19:57.437Z,797
2018-07-24T00:20:01.642Z,797.01
2018-07-24T00:20:05.745Z,796.96
2018-07-24T00:20:09.851Z,796.98
2018-07-24T00:20:13.985Z,796.99
2018-07-24T00:20:18.207Z,796.94
2018-07-24T00:20:22.512Z,796.97
2018-07-24T00:20:26.608Z,796.93
2018-07-24T00:20:30.815Z,796.96
2018-07-24T00:20:34.912Z,796.99
2018-07-24T00:20:39.222Z,796.98
2018-07-24T00:20:43.324Z,796.96
2018-07-24T00:20:47.633Z,796.95
2018-07-24T00:20:51.943Z,796.94
2018-07-24T00:20:56.253Z,796.96
2018-07-24T00:21:00.353Z,796.99
2018-07-24T00:21:04.557Z,796.96
2018-07-24T00:21:08.879Z,796.94
2018-07-24T00:21:13.075Z,796.97
2018-07-24T00:21:17.172Z,796.9
2018-07-24T00:21:21.486Z,796.94
2018-07-24T00:21:25.797Z,796.94
2018-07-24T00:21:29.898Z,796.92
2018-07-24T00:21:34.213Z,796.94
2018-07-24T00:21:38.518Z,796.95
2018-07-24T00:21:42.729Z,796.91
2018-07-24T00:21:47.036Z,796.93
2018-07-24T00:21:51.257Z,796.88
2018-07-24T00:21:55.352Z,796.94
2018-07-24T00:21:59.449Z,796.92
2018-07-24T00:22:03.548Z,796.94
2018-07-24T00:22:07.862Z,796.95
2018-07-24T00:22:12.186Z,796.95
2018-07-24T00:22:16.387Z,796.95
2018-07-24T00:22:20.592Z,796.93
2018-07-24T00:22:24.898Z,796.92
2018-07-24T00:22:28.992Z,796.94
2018-07-24T00:22:33.202Z,796.94
2018-07-24T00:22:37.515Z,796.93
2018-07-24T00:22:41.820Z,796.93
2018-07-24T00:22:46.125Z,796.92
2018-07-24T00:23:22.328Z,796.92
2018-07-24T00:23:26.532Z,796.93
2018-07-24T00:23:30.743Z,796.92
2018-07-24T00:23:35.021Z,796.92
2018-07-24T00:23:39.271Z,796.92
2018-07-24T00:23:43.479Z,796.93
2018-07-24T00:23:47.685Z,796.93
2018-07-24T00:23:51.677Z,796.93
2018-07-24T00:23:55.780Z,796.92
2018-07-24T00:24:00.101Z,796.9
2018-07-24T00:24:04.215Z,796.92
2018-07-24T00:24:08.429Z,796.91
2018-07-24T00:24:12.643Z,796.86
2018-07-24T00:24:16.854Z,796.9
2018-07-24T00:24:21.169Z,796.87
2018-07-24T00:24:25.491Z,796.92
2018-07-24T00:24:29.590Z,796.94
2018-07-24T00:24:33.949Z,796.91
2018-07-24T00:24:38.049Z,796.92
2018-07-24T00:24:42.356Z,796.9
2018-07-24T00:24:46.450Z,796.9
2018-07-24T00:24:50.694Z,796.9
2018-07-24T00:24:54.898Z,796.88
2018-07-24T00:24:59.112Z,796.9
2018-07-24T00:25:03.110Z,796.94
2018-07-24T00:25:07.313Z,796.94
2018-07-24T00:25:11.514Z,796.93
2018-07-24T00:25:15.717Z,796.94
2018-07-24T00:25:19.817Z,796.95
2018-07-24T00:25:24.184Z,796.97
2018-07-24T00:25:28.495Z,796.91
2018-07-24T00:25:32.814Z,796.94
2018-07-24T00:25:37.024Z,796.92
2018-07-24T00:25:41.230Z,796.92
2018-07-24T00:25:45.550Z,796.91
2018-07-24T00:25:49.758Z,796.93
2018-07-24T00:25:54.115Z,796.86
2018-07-24T00:25:58.324Z,796.9
2018-07-24T00:26:02.427Z,796.93
2018-07-24T00:26:06.414Z,796.92
2018-07-24T00:26:10.723Z,796.92
2018-07-24T00:26:14.935Z,796.89
2018-07-24T00:26:19.140Z,796.92
2018-07-24T00:26:23.452Z,796.9
2018-07-24T00:26:27.767Z,796.95
2018-07-24T00:26:31.971Z,796.95
2018-07-24T00:26:36.292Z,796.95
2018-07-24T00:26:40.282Z,796.95
2018-07-24T00:26:44.484Z,796.94
2018-07-24T00:26:48.798Z,796.93
2018-07-24T00:26:52.895Z,796.94
2018-07-24T00:26:57.222Z,796.95
2018-07-24T00:27:01.538Z,796.95
2018-07-24T00:27:05.635Z,796.97
2018-07-24T00:27:09.839Z,796.94
2018-07-24T00:27:13.937Z,796.96
2018-07-24T00:27:18.134Z,796.93
2018-07-24T00:27:22.230Z,796.94
2018-07-24T00:27:26.436Z,796.96
2018-07-24T00:27:30.746Z,797
2018-07-24T00:27:35.058Z,796.98
2018-07-24T00:27:39.377Z,796.96
2018-07-24T00:27:43.586Z,796.98
2018-07-24T00:27:47.685Z,796.99
2018-07-24T00:27:51.786Z,797.01
2018-07-24T00:27:56.041Z,796.98
2018-07-24T00:28:00.353Z,797.01
2018-07-24T00:28:04.674Z,796.97
2018-07-24T00:28:08.895Z,797.02
2018-07-24T00:28:13.212Z,797.03
2018-07-24T00:28:17.471Z,796.99
2018-07-24T00:28:21.674Z,796.97
2018-07-24T00:28:25.680Z,797.01
2018-07-24T00:28:29.669Z,797
2018-07-24T00:28:33.762Z,796.99
2018-07-24T00:28:37.985Z,796.99
2018-07-24T00:28:42.193Z,796.99
2018-07-24T00:28:46.394Z,797.02
2018-07-24T00:28:50.704Z,797
2018-07-24T00:28:54.914Z,797.04
2018-07-24T00:28:59.231Z,797.01
2018-07-24T00:29:03.450Z,796.99
2018-07-24T00:29:07.762Z,797
2018-07-24T00:29:11.750Z,797
2018-07-24T00:29:15.950Z,796.94
2018-07-24T00:29:20.152Z,796.99
2018-07-24T00:29:24.351Z,796.99
2018-07-24T00:29:28.453Z,797
2018-07-24T00:29:32.764Z,797
2018-07-24T00:29:36.975Z,797.01
2018-07-24T00:29:41.193Z,797
2018-07-24T00:29:45.508Z,797.03
2018-07-24T00:29:49.714Z,797.02
2018-07-24T00:29:53.917Z,797.01
2018-07-24T00:29:58.229Z,796.99
2018-07-24T00:30:02.433Z,796.96
2018-07-24T00:30:06.548Z,796.99
2018-07-24T00:30:10.536Z,797
2018-07-24T00:30:14.855Z,797.01
2018-07-24T00:30:19.171Z,797.01
2018-07-24T00:30:23.273Z,797.01
2018-07-24T00:30:27.584Z,797
2018-07-24T00:30:31.787Z,796.99
2018-07-24T00:30:36.098Z,796.98
2018-07-24T00:30:40.302Z,796.98
2018-07-24T00:30:44.512Z,797.01
2018-07-24T00:30:48.717Z,797.01
2018-07-24T00:30:53.030Z,797.01
2018-07-24T00:30:57.345Z,797
2018-07-24T00:31:01.549Z,797
2018-07-24T00:31:05.869Z,796.99
2018-07-24T00:31:09.966Z,797
2018-07-24T00:31:14.174Z,796.97
2018-07-24T00:31:18.485Z,796.98
2018-07-24T00:31:22.736Z,796.95
2018-07-24T00:31:27.184Z,797
2018-07-24T00:31:31.450Z,796.99
2018-07-24T00:31:35.658Z,796.94
2018-07-24T00:31:39.972Z,797.01
2018-07-24T00:31:44.178Z,797
2018-07-24T00:31:48.396Z,796.93
2018-07-24T00:31:52.499Z,796.97
2018-07-24T00:31:56.823Z,797
2018-07-24T00:32:00.825Z,796.98
2018-07-24T00:32:05.229Z,796.97
2018-07-24T00:32:09.692Z,796.98
2018-07-24T00:32:14.348Z,796.94
2018-07-24T00:32:18.670Z,796.99
2018-07-24T00:32:22.881Z,796.97
2018-07-24T00:32:27.203Z,796.97
2018-07-24T00:32:31.298Z,796.96
2018-07-24T00:32:35.504Z,796.99
2018-07-24T00:32:39.719Z,796.95
2018-07-24T00:32:43.712Z,796.97
2018-07-24T00:32:47.913Z,796.97
2018-07-24T00:32:52.224Z,796.94
2018-07-24T00:32:56.533Z,796.96
2018-07-24T00:33:00.520Z,796.98
2018-07-24T00:33:04.619Z,796.92
2018-07-24T00:33:08.714Z,796.96
2018-07-24T00:33:12.915Z,796.96
2018-07-24T00:33:17.116Z,796.92
2018-07-24T00:33:21.109Z,796.92
2018-07-24T00:33:25.207Z,796.95
2018-07-24T00:33:29.304Z,796.96
2018-07-24T00:33:33.506Z,796.93
2018-07-24T00:33:37.728Z,796.91
2018-07-24T00:33:41.824Z,796.94
2018-07-24T00:33:46.027Z,796.97
2018-07-24T00:33:50.235Z,796.98
2018-07-24T00:33:54.560Z,796.89
2018-07-24T00:33:58.878Z,796.94
2018-07-24T00:34:03.082Z,796.96
2018-07-24T00:34:07.176Z,796.95
2018-07-24T00:34:11.379Z,796.96
2018-07-24T00:34:15.594Z,796.97
2018-07-24T00:34:19.797Z,796.97
2018-07-24T00:34:23.999Z,796.91
2018-07-24T00:34:28.223Z,796.94
2018-07-24T00:34:32.573Z,796.95
2018-07-24T00:34:36.895Z,796.95
2018-07-24T00:34:41.104Z,796.94
2018-07-24T00:34:45.308Z,796.97
2018-07-24T00:34:49.622Z,796.92
2018-07-24T00:34:53.826Z,796.95
2018-07-24T00:34:58.146Z,796.94
2018-07-24T00:35:02.374Z,796.94
2018-07-24T00:35:06.691Z,796.94
2018-07-24T00:35:10.901Z,796.96
2018-07-24T00:35:15.227Z,796.94
2018-07-24T00:35:19.322Z,796.95
2018-07-24T00:35:23.640Z,796.96
2018-07-24T00:35:27.845Z,796.96
2018-07-24T00:35:32.049Z,796.95
2018-07-24T00:35:36.257Z,796.97
2018-07-24T00:35:40.351Z,796.96
2018-07-24T00:35:44.558Z,796.98
2018-07-24T00:35:48.761Z,796.97
2018-07-24T00:35:53.122Z,796.97
2018-07-24T00:35:57.223Z,796.96
2018-07-24T00:36:01.532Z,796.94
2018-07-24T00:36:05.640Z,796.91
2018-07-24T00:36:09.749Z,796.95
2018-07-24T00:36:13.758Z,796.91
2018-07-24T00:36:17.973Z,796.91
2018-07-24T00:36:22.075Z,796.91
2018-07-24T00:36:26.280Z,796.93
2018-07-24T00:36:30.483Z,796.87
2018-07-24T00:36:34.693Z,796.93
2018-07-24T00:36:38.909Z,796.86
2018-07-24T00:36:43.118Z,796.89
2018-07-24T00:36:47.323Z,796.91
2018-07-24T00:36:51.322Z,796.9
2018-07-24T00:36:55.638Z,796.91
2018-07-24T00:36:59.949Z,796.93
2018-07-24T00:37:03.836Z,796.92
2018-07-24T00:37:07.756Z,796.91
2018-07-24T00:37:11.856Z,796.88
2018-07-24T00:37:16.075Z,796.9
2018-07-24T00:37:20.392Z,796.91
2018-07-24T00:37:24.694Z,796.9
2018-07-24T00:37:28.896Z,796.92
2018-07-24T00:37:33.061Z,796.91
2018-07-24T00:37:37.267Z,796.92
2018-07-24T00:37:41.472Z,796.88
2018-07-24T00:37:45.679Z,796.86
2018-07-24T00:37:50.001Z,796.84
2018-07-24T00:37:54.318Z,796.88
2018-07-24T00:37:58.626Z,796.9
2018-07-24T00:38:02.844Z,796.89
2018-07-24T00:38:07.158Z,796.9
2018-07-24T00:38:11.365Z,796.86
2018-07-24T00:38:15.572Z,796.9
2018-07-24T00:38:19.565Z,796.87
2018-07-24T00:38:23.875Z,796.84
2018-07-24T00:38:28.079Z,796.85
2018-07-24T00:38:32.068Z,796.89
2018-07-24T00:38:36.380Z,796.88
2018-07-24T00:38:40.582Z,796.88
2018-07-24T00:38:44.790Z,796.9
2018-07-24T00:38:49.094Z,796.9
2018-07-24T00:38:53.297Z,796.91
2018-07-24T00:38:57.615Z,796.91
2018-07-24T00:39:01.920Z,796.9
2018-07-24T00:39:05.819Z,796.92
2018-07-24T00:39:10.130Z,796.9
2018-07-24T00:39:14.120Z,796.91
2018-07-24T00:39:18.328Z,796.91
2018-07-24T00:39:22.530Z,796.86
2018-07-24T00:39:26.741Z,796.89
2018-07-24T00:39:30.833Z,796.91
2018-07-24T00:39:35.046Z,796.9
2018-07-24T00:39:39.037Z,796.89
2018-07-24T00:39:43.247Z,796.88
2018-07-24T00:39:47.343Z,796.9
2018-07-24T00:39:51.648Z,796.91
2018-07-24T00:39:55.860Z,796.89
2018-07-24T00:40:00.196Z,796.89
2018-07-24T00:40:04.416Z,796.89
2018-07-24T00:40:08.625Z,796.9
2018-07-24T00:40:12.721Z,796.85
2018-07-24T00:40:16.822Z,796.89
2018-07-24T00:40:20.829Z,796.88
2018-07-24T00:40:24.826Z,796.89
2018-07-24T00:40:29.026Z,796.88
2018-07-24T00:40:33.232Z,796.9
2018-07-24T00:40:37.433Z,796.86
2018-07-24T00:40:41.741Z,796.82
2018-07-24T00:40:46.069Z,796.87
2018-07-24T00:40:50.380Z,796.85
2018-07-24T00:40:54.578Z,796.86
2018-07-24T00:40:58.895Z,796.85
2018-07-24T00:41:02.995Z,796.87
2018-07-24T00:41:07.203Z,796.83
2018-07-24T00:41:11.407Z,796.86
2018-07-24T00:41:15.716Z,796.84
2018-07-24T00:41:19.919Z,796.85
2018-07-24T00:41:24.232Z,796.87
2018-07-24T00:41:28.552Z,796.86
2018-07-24T00:41:32.753Z,796.86
2018-07-24T00:41:37.063Z,796.84
2018-07-24T00:41:41.379Z,796.87
2018-07-24T00:41:45.592Z,796.83
2018-07-24T00:41:49.912Z,796.82
2018-07-24T00:41:54.122Z,796.83
2018-07-24T00:41:58.434Z,796.82
2018-07-24T00:42:02.586Z,796.85
2018-07-24T00:42:06.791Z,796.79
2018-07-24T00:42:10.889Z,796.85
2018-07-24T00:42:15.206Z,796.84
2018-07-24T00:42:19.425Z,796.84
2018-07-24T00:42:23.631Z,796.8
2018-07-24T00:42:27.843Z,796.84
2018-07-24T00:42:32.047Z,796.8
2018-07-24T00:42:36.144Z,796.82
2018-07-24T00:42:40.342Z,796.8
2018-07-24T00:42:44.651Z,796.84
2018-07-24T00:42:48.746Z,796.82
2018-07-24T00:42:53.050Z,796.75
2018-07-24T00:42:57.249Z,796.83
2018-07-24T00:43:01.458Z,796.81
2018-07-24T00:43:05.560Z,796.79
2018-07-24T00:43:09.550Z,796.81
2018-07-24T00:43:13.754Z,796.8
2018-07-24T00:43:17.847Z,796.8
2018-07-24T00:43:22.056Z,796.79
2018-07-24T00:43:26.378Z,796.77
2018-07-24T00:43:30.480Z,796.79
2018-07-24T00:43:34.800Z,796.75
2018-07-24T00:43:38.899Z,796.77
2018-07-24T00:43:43.209Z,796.77
2018-07-24T00:43:47.309Z,796.75
2018-07-24T00:43:51.621Z,796.77
2018-07-24T00:43:55.830Z,796.75
2018-07-24T00:44:00.039Z,796.74
2018-07-24T00:44:04.348Z,796.72
2018-07-24T00:44:08.552Z,796.74
2018-07-24T00:44:12.763Z,796.76
2018-07-24T00:44:16.969Z,796.73
2018-07-24T00:44:21.066Z,796.72
2018-07-24T00:44:25.274Z,796.71
2018-07-24T00:44:29.261Z,796.75
2018-07-24T00:44:33.472Z,796.73
2018-07-24T00:44:37.780Z,796.74
2018-07-24T00:44:42.085Z,796.72
2018-07-24T00:44:46.386Z,796.72
2018-07-24T00:44:50.696Z,796.69
2018-07-24T00:44:55.006Z,796.7
2018-07-24T00:44:59.215Z,796.7
2018-07-24T00:45:03.324Z,796.69
2018-07-24T00:45:07.534Z,796.7
2018-07-24T00:45:11.741Z,796.68
2018-07-24T00:45:15.837Z,796.69
2018-07-24T00:45:20.042Z,796.66
2018-07-24T00:45:24.348Z,796.68
2018-07-24T00:45:28.595Z,796.69
2018-07-24T00:45:32.687Z,796.69
2018-07-24T00:45:36.997Z,796.67
2018-07-24T00:45:41.308Z,796.67
2018-07-24T00:45:45.517Z,796.67
2018-07-24T00:45:49.615Z,796.66
2018-07-24T00:45:53.821Z,796.68
2018-07-24T00:45:58.132Z,796.69
2018-07-24T00:46:02.230Z,796.65
2018-07-24T00:46:06.225Z,796.66
2018-07-24T00:46:10.435Z,796.62
2018-07-24T00:46:14.753Z,796.66
2018-07-24T00:46:18.950Z,796.67
2018-07-24T00:46:23.047Z,796.64
2018-07-24T00:46:27.250Z,796.67
2018-07-24T00:46:31.560Z,796.66
2018-07-24T00:46:35.871Z,796.66
2018-07-24T00:46:40.077Z,796.66
2018-07-24T00:46:44.278Z,796.66
2018-07-24T00:46:48.489Z,796.67
2018-07-24T00:46:52.588Z,796.68
2018-07-24T00:46:56.688Z,796.67
2018-07-24T00:47:01.002Z,796.68
2018-07-24T00:47:05.097Z,796.69
2018-07-24T00:47:09.311Z,796.66
2018-07-24T00:47:13.411Z,796.64
2018-07-24T00:47:17.614Z,796.66
2018-07-24T00:47:21.817Z,796.65
2018-07-24T00:47:25.925Z,796.66
2018-07-24T00:47:30.320Z,796.65
2018-07-24T00:47:34.809Z,796.64
2018-07-24T00:47:39.657Z,796.63
2018-07-24T00:47:44.348Z,796.65
2018-07-24T00:47:48.342Z,796.63
2018-07-24T00:47:52.660Z,796.65
2018-07-24T00:47:56.760Z,796.66
2018-07-24T00:48:00.857Z,796.68
2018-07-24T00:48:04.750Z,796.68
2018-07-24T00:48:09.070Z,796.65
2018-07-24T00:48:13.277Z,796.66
2018-07-24T00:48:17.590Z,796.66
2018-07-24T00:48:21.795Z,796.65
2018-07-24T00:48:26.111Z,796.69
2018-07-24T00:48:30.315Z,796.62
2018-07-24T00:48:34.522Z,796.66
2018-07-24T00:48:38.830Z,796.67
2018-07-24T00:48:43.035Z,796.64
2018-07-24T00:48:47.133Z,796.68
2018-07-24T00:48:51.454Z,796.68
2018-07-24T00:48:55.657Z,796.68
2018-07-24T00:48:59.762Z,796.65
2018-07-24T00:49:03.869Z,796.67
2018-07-24T00:49:08.080Z,796.66
2018-07-24T00:49:12.390Z,796.69
2018-07-24T00:49:16.711Z,796.65
2018-07-24T00:49:20.817Z,796.67
2018-07-24T00:49:25.022Z,796.69
2018-07-24T00:49:29.124Z,796.71
2018-07-24T00:49:33.346Z,796.7
2018-07-24T00:49:37.552Z,796.7
2018-07-24T00:49:41.871Z,796.7
2018-07-24T00:49:46.076Z,796.67
2018-07-24T00:49:50.287Z,796.71
2018-07-24T00:49:54.386Z,796.7
2018-07-24T00:49:58.596Z,796.71
2018-07-24T00:50:02.909Z,796.69
2018-07-24T00:50:06.909Z,796.73
2018-07-24T00:50:11.006Z,796.64
2018-07-24T00:50:15.330Z,796.64
2018-07-24T00:50:19.642Z,796.66
2018-07-24T00:50:23.950Z,796.68
2018-07-24T00:50:28.173Z,796.68
2018-07-24T00:50:32.536Z,796.68
2018-07-24T00:50:36.845Z,796.66
2018-07-24T00:50:40.945Z,796.69
2018-07-24T00:50:45.153Z,796.67
2018-07-24T00:50:49.469Z,796.67
2018-07-24T00:50:53.669Z,796.72
2018-07-24T00:50:57.980Z,796.68
2018-07-24T00:51:02.181Z,796.68
2018-07-24T00:51:06.277Z,796.69
2018-07-24T00:51:10.276Z,796.7
2018-07-24T00:51:14.477Z,796.67
2018-07-24T00:51:18.573Z,796.71
2018-07-24T00:51:22.881Z,796.64
2018-07-24T00:51:27.082Z,796.7
2018-07-24T00:51:31.183Z,796.67
2018-07-24T00:51:35.387Z,796.65
2018-07-24T00:51:39.378Z,796.66
2018-07-24T00:51:43.584Z,796.7
2018-07-24T00:51:47.787Z,796.69
2018-07-24T00:51:51.994Z,796.69
2018-07-24T00:51:56.096Z,796.71
2018-07-24T00:52:00.099Z,796.71
2018-07-24T00:52:04.420Z,796.7
2018-07-24T00:52:08.525Z,796.69
2018-07-24T00:52:12.623Z,796.69
2018-07-24T00:52:16.937Z,796.67
2018-07-24T00:52:20.822Z,796.7
2018-07-24T00:52:25.136Z,796.68
2018-07-24T00:52:29.337Z,796.68
2018-07-24T00:52:33.647Z,796.7
2018-07-24T00:52:37.952Z,796.68
2018-07-24T00:52:42.152Z,796.66
2018-07-24T00:52:46.351Z,796.68
2018-07-24T00:52:50.550Z,796.69
2018-07-24T00:52:54.869Z,796.7
2018-07-24T00:52:59.071Z,796.67
2018-07-24T00:53:03.273Z,796.64
2018-07-24T00:53:07.582Z,796.63
2018-07-24T00:53:11.903Z,796.69
2018-07-24T00:53:16.218Z,796.66
2018-07-24T00:53:20.316Z,796.66